Time;durP1;ratioP1;P1;durP2;ratioP2;P2;SDS_P1;SDS_P2;PMS_P1;PMS_P2;Temp;Humidity;BMP_temperature;BMP_pressure;BME280_temperature;BME280_humidity;BME280_pressure;Samples;Min_cycle;Max_cycle;Signal;HPM_P1;HPM_P2
2022/11/28 00:01:12;;;;;;;8.00;4.70;;;8.10;99.90;;;;;;5106338;27;20422;-33
2022/11/28 00:03:38;;;;;;;5.50;4.93;;;8.30;99.90;;;;;;5111906;27;20343;-38
2022/11/28 00:06:05;;;;;;;5.57;5.00;;;8.20;99.90;;;;;;5090550;28;20544;-35
2022/11/28 00:08:35;;;;;;;5.00;4.43;;;8.20;99.90;;;;;;5090264;28;20225;-38
2022/11/28 00:11:06;;;;;;;5.30;4.70;;;8.10;99.90;;;;;;5098895;27;20521;-35
2022/11/28 00:13:32;;;;;;;6.70;4.83;;;8.20;99.90;;;;;;5117599;27;20457;-35
2022/11/28 00:16:00;;;;;;;5.37;4.63;;;8.10;99.90;;;;;;5099131;27;20450;-35
2022/11/28 00:18:27;;;;;;;5.53;4.40;;;8.20;99.90;;;;;;5097257;27;20192;-35
2022/11/28 00:21:02;;;;;;;5.40;4.90;;;8.10;99.90;;;;;;5090178;28;20422;-37
2022/11/28 00:23:29;;;;;;;6.43;5.10;;;8.00;99.90;;;;;;5090331;28;20916;-32
2022/11/28 00:26:03;;;;;;;6.40;4.60;;;8.00;99.90;;;;;;5101980;28;20434;-34
2022/11/28 00:28:29;;;;;;;6.67;5.03;;;8.00;99.90;;;;;;5109963;28;20425;-32
2022/11/28 00:30:55;;;;;;;5.93;5.27;;;8.00;99.90;;;;;;5110350;28;20429;-33
2022/11/28 00:33:20;;;;;;;6.10;5.40;;;7.90;99.90;;;;;;5108496;28;20709;-32
2022/11/28 00:35:46;;;;;;;5.80;4.87;;;7.90;99.90;;;;;;5108763;28;20192;-30
2022/11/28 00:38:12;;;;;;;5.43;4.83;;;7.90;99.90;;;;;;5110430;28;20187;-35
2022/11/28 00:40:38;;;;;;;7.77;4.90;;;7.90;99.90;;;;;;5109516;28;20543;-36
2022/11/28 00:43:03;;;;;;;9.77;5.40;;;7.90;99.90;;;;;;5109501;27;20199;-35
2022/11/28 00:45:29;;;;;;;6.30;4.90;;;7.90;99.90;;;;;;5110239;28;20184;-33
2022/11/28 00:47:55;;;;;;;6.53;5.60;;;8.00;99.90;;;;;;5110066;28;20199;-35
2022/11/28 00:50:20;;;;;;;6.20;5.60;;;7.90;99.90;;;;;;5109552;28;20198;-36
2022/11/28 00:52:46;;;;;;;8.07;5.23;;;7.80;99.90;;;;;;5109511;28;20219;-35
2022/11/28 00:55:11;;;;;;;6.23;5.53;;;7.80;99.90;;;;;;5109840;28;20278;-34
2022/11/28 00:57:37;;;;;;;5.47;4.73;;;7.90;99.90;;;;;;5109654;28;20203;-33
2022/11/28 01:00:05;;;;;;;8.17;5.20;;;7.90;99.90;;;;;;5109400;28;20198;-36
2022/11/28 01:02:31;;;;;;;5.13;4.60;;;8.00;99.90;;;;;;5109750;28;20606;-32
2022/11/28 01:04:56;;;;;;;5.60;5.03;;;7.80;99.90;;;;;;5109569;28;20702;-32
2022/11/28 01:07:22;;;;;;;6.23;5.63;;;7.90;99.90;;;;;;5109801;28;20192;-35
2022/11/28 01:09:48;;;;;;;6.03;5.00;;;7.90;99.90;;;;;;5109384;28;20191;-36
2022/11/28 01:12:13;;;;;;;6.40;4.93;;;7.90;99.90;;;;;;5109070;28;20214;-34
2022/11/28 01:14:39;;;;;;;4.90;4.40;;;7.90;99.90;;;;;;5109217;28;20286;-38
2022/11/28 01:17:05;;;;;;;4.70;4.30;;;7.90;99.90;;;;;;5113640;27;20543;-37
2022/11/28 01:19:30;;;;;;;6.70;5.73;;;7.90;99.90;;;;;;5088818;28;20309;-34
2022/11/28 01:21:56;;;;;;;5.53;4.73;;;8.00;99.90;;;;;;5089048;28;20207;-35
2022/11/28 01:24:21;;;;;;;7.93;5.70;;;7.80;99.90;;;;;;5089510;28;20187;-37
2022/11/28 01:26:47;;;;;;;10.90;6.47;;;8.10;99.90;;;;;;5107290;28;20650;-32
2022/11/28 01:29:13;;;;;;;6.93;5.10;;;7.80;99.90;;;;;;5104667;28;20217;-31
2022/11/28 01:31:39;;;;;;;8.00;5.37;;;7.90;99.90;;;;;;5088964;28;20737;-32
2022/11/28 01:34:05;;;;;;;6.17;4.90;;;8.00;99.90;;;;;;5087173;28;20497;-37
2022/11/28 01:36:30;;;;;;;6.60;5.60;;;7.80;99.90;;;;;;5088896;28;20399;-37
2022/11/28 01:38:56;;;;;;;5.97;5.37;;;7.90;99.90;;;;;;5088549;28;20195;-35
2022/11/28 01:41:25;;;;;;;6.87;5.13;;;7.80;99.90;;;;;;5087003;28;20186;-33
2022/11/28 01:44:02;;;;;;;8.30;5.03;;;7.90;99.90;;;;;;5088517;28;20437;-38
2022/11/28 01:46:29;;;;;;;7.93;5.57;;;7.60;99.90;;;;;;5088737;28;20438;-35
2022/11/28 01:49:03;;;;;;;6.27;5.63;;;8.00;99.90;;;;;;5088664;28;20485;-36
2022/11/28 01:51:30;;;;;;;6.47;5.27;;;7.70;99.90;;;;;;5100110;28;20945;-32
2022/11/28 01:53:56;;;;;;;6.33;5.20;;;7.60;99.90;;;;;;5108387;28;20401;-36
2022/11/28 01:56:27;;;;;;;6.47;5.60;;;7.70;99.90;;;;;;5109011;28;20421;-36
2022/11/28 01:58:58;;;;;;;6.63;5.67;;;7.70;99.90;;;;;;5108725;27;20493;-36
2022/11/28 02:01:26;;;;;;;6.83;5.97;;;7.60;99.90;;;;;;5109424;28;20413;-35
2022/11/28 02:03:53;;;;;;;7.30;5.10;;;7.50;99.90;;;;;;5108585;28;20410;-34
2022/11/28 02:06:22;;;;;;;8.37;6.33;;;7.80;99.90;;;;;;5109134;28;20909;-37
2022/11/28 02:08:52;;;;;;;10.70;6.70;;;7.70;99.90;;;;;;5107145;28;20417;-35
2022/11/28 02:11:26;;;;;;;7.47;6.67;;;7.70;99.90;;;;;;5107525;28;20449;-34
2022/11/28 02:13:59;;;;;;;6.10;5.33;;;7.70;99.90;;;;;;5108578;28;20937;-37
2022/11/28 02:17:13;;;;;;;6.80;5.73;;;7.90;99.90;;;;;;5108797;28;20431;-35
2022/11/28 02:19:47;;;;;;;7.00;5.57;;;7.60;99.90;;;;;;5087699;28;20460;-36
2022/11/28 02:22:16;;;;;;;6.90;6.00;;;7.80;99.90;;;;;;5108888;28;20421;-33
2022/11/28 02:24:50;;;;;;;6.80;6.20;;;7.60;99.90;;;;;;5108643;28;20498;-35
2022/11/28 02:27:25;;;;;;;8.10;5.97;;;7.60;99.90;;;;;;5108596;28;21159;-32
2022/11/28 02:30:05;;;;;;;7.90;5.40;;;7.40;99.90;;;;;;5108052;28;20902;-35
2022/11/28 02:32:39;;;;;;;6.73;5.93;;;7.60;99.90;;;;;;5108599;28;20493;-35
2022/11/28 02:35:20;;;;;;;7.20;6.00;;;7.70;99.90;;;;;;5107088;28;20409;-32
2022/11/28 02:38:09;;;;;;;6.70;6.00;;;7.60;99.90;;;;;;5108968;28;20436;-31
2022/11/28 02:40:37;;;;;;;13.13;6.00;;;7.70;99.90;;;;;;5106901;28;20807;-37
2022/11/28 02:43:18;;;;;;;7.07;5.27;;;7.60;99.90;;;;;;5108383;28;20474;-32
2022/11/28 02:46:08;;;;;;;8.50;6.37;;;7.60;99.90;;;;;;5107291;28;20413;-32
2022/11/28 02:48:50;;;;;;;8.87;5.60;;;7.60;99.90;;;;;;5108259;28;20449;-37
2022/11/28 02:51:19;;;;;;;8.07;6.83;;;7.60;99.90;;;;;;5108640;28;20420;-37
2022/11/28 02:53:45;;;;;;;8.83;6.30;;;7.70;99.90;;;;;;5108025;28;20992;-35
2022/11/28 02:56:12;;;;;;;6.73;5.77;;;7.70;99.90;;;;;;5108400;28;20494;-37
2022/11/28 02:58:38;;;;;;;6.70;5.73;;;7.80;99.90;;;;;;5107803;28;20409;-37
2022/11/28 03:01:06;;;;;;;8.70;6.00;;;7.60;99.90;;;;;;5108313;28;20463;-36
2022/11/28 03:03:56;;;;;;;7.70;5.57;;;7.80;99.90;;;;;;5109029;28;20965;-32
2022/11/28 03:06:31;;;;;;;6.20;5.60;;;7.60;99.90;;;;;;5112156;28;20421;-37
2022/11/28 03:09:30;;;;;;;6.93;6.23;;;7.70;99.90;;;;;;5111534;28;20411;-35
2022/11/28 03:12:04;;;;;;;6.13;5.47;;;7.70;99.90;;;;;;5112082;28;20445;-29
2022/11/28 03:14:49;;;;;;;7.90;6.40;;;7.70;99.90;;;;;;5111887;28;20409;-35
2022/11/28 03:17:32;;;;;;;6.20;5.60;;;7.80;99.90;;;;;;5111593;28;20855;-31
2022/11/28 03:20:23;;;;;;;9.90;5.53;;;7.80;99.90;;;;;;5111427;28;20454;-32
2022/11/28 03:23:13;;;;;;;8.10;5.40;;;7.80;99.90;;;;;;5111661;28;20884;-36
2022/11/28 03:25:57;;;;;;;6.77;5.87;;;7.80;99.90;;;;;;5091001;28;20548;-36
2022/11/28 03:28:32;;;;;;;8.47;5.80;;;7.80;99.90;;;;;;5091317;28;20421;-32
2022/11/28 03:31:08;;;;;;;6.70;6.00;;;7.60;99.90;;;;;;5091385;28;20493;-32
2022/11/28 03:33:40;;;;;;;6.73;5.60;;;7.80;99.90;;;;;;5088416;28;20445;-32
2022/11/28 03:36:13;;;;;;;6.13;5.17;;;7.80;99.90;;;;;;5091286;28;20434;-32
2022/11/28 03:38:47;;;;;;;7.07;5.70;;;7.80;99.90;;;;;;5091279;28;20413;-31
2022/11/28 03:41:18;;;;;;;6.40;5.47;;;7.70;99.90;;;;;;5091121;28;20402;-34
2022/11/28 03:43:51;;;;;;;7.63;5.83;;;8.00;99.90;;;;;;5090872;28;20483;-37
2022/11/28 03:46:20;;;;;;;6.67;5.73;;;8.00;99.90;;;;;;5091293;28;20410;-34
2022/11/28 03:48:51;;;;;;;6.60;5.80;;;8.00;99.90;;;;;;5090693;28;20422;-29
2022/11/28 03:51:31;;;;;;;6.93;5.70;;;7.80;99.90;;;;;;5091026;28;20830;-29
2022/11/28 03:54:09;;;;;;;5.97;5.37;;;7.80;99.90;;;;;;5090781;28;20455;-32
2022/11/28 03:56:58;;;;;;;12.13;5.20;;;7.80;99.90;;;;;;5090646;28;20398;-32
2022/11/28 03:59:30;;;;;;;7.10;5.30;;;7.90;99.90;;;;;;5090495;28;20406;-33
2022/11/28 04:02:13;;;;;;;6.40;5.50;;;7.90;99.90;;;;;;5090635;28;20406;-34
2022/11/28 04:04:50;;;;;;;6.77;5.10;;;7.90;99.90;;;;;;5090798;28;20410;-32
2022/11/28 04:07:45;;;;;;;7.43;5.37;;;7.90;99.90;;;;;;5090424;28;20448;-34
2022/11/28 04:10:30;;;;;;;6.90;5.87;;;7.80;99.90;;;;;;5090432;28;20905;-37
2022/11/28 04:13:19;;;;;;;7.13;5.00;;;7.90;99.90;;;;;;5090075;28;20509;-37
2022/11/28 04:16:07;;;;;;;7.70;5.40;;;7.80;99.90;;;;;;5095817;27;20407;-32
2022/11/28 04:18:51;;;;;;;11.73;5.97;;;7.80;99.90;;;;;;5131030;27;20397;-37
2022/11/28 04:21:23;;;;;;;6.63;5.80;;;8.00;99.90;;;;;;5131366;27;20397;-34
2022/11/28 04:23:51;;;;;;;5.10;4.70;;;7.80;99.90;;;;;;5123034;27;20702;-30
2022/11/28 04:26:23;;;;;;;8.23;5.50;;;7.80;99.90;;;;;;5111213;28;20410;-34
2022/11/28 04:28:50;;;;;;;5.17;4.67;;;7.80;99.90;;;;;;5110214;28;20597;-33
2022/11/28 04:31:21;;;;;;;7.00;5.80;;;7.80;99.90;;;;;;5110713;28;20485;-34
2022/11/28 04:33:52;;;;;;;6.57;5.87;;;7.90;99.90;;;;;;5108558;27;20425;-35
2022/11/28 04:36:21;;;;;;;6.60;5.20;;;7.90;99.90;;;;;;5110395;28;20406;-29
2022/11/28 04:38:55;;;;;;;7.43;5.93;;;8.00;99.90;;;;;;5110070;28;20438;-34
2022/11/28 04:41:44;;;;;;;7.90;4.73;;;8.10;99.90;;;;;;5110423;28;20729;-35
2022/11/28 04:44:18;;;;;;;5.67;5.03;;;7.80;99.90;;;;;;5109956;28;20840;-30
2022/11/28 04:46:50;;;;;;;7.50;5.77;;;7.70;99.90;;;;;;5110130;28;20401;-30
2022/11/28 04:49:15;;;;;;;5.47;4.80;;;7.90;99.90;;;;;;5109851;28;20783;-34
2022/11/28 04:52:02;;;;;;;5.80;4.97;;;7.90;99.90;;;;;;5110264;28;20449;-35
2022/11/28 04:54:51;;;;;;;6.23;5.60;;;7.70;99.90;;;;;;5109915;28;20171;-31
2022/11/28 04:57:31;;;;;;;5.67;5.17;;;7.80;99.90;;;;;;5109776;28;20739;-35
2022/11/28 04:59:59;;;;;;;6.43;5.43;;;7.80;99.90;;;;;;5109776;28;20414;-31
2022/11/28 05:02:26;;;;;;;7.33;5.53;;;7.80;99.90;;;;;;5109965;28;20850;-33
2022/11/28 05:04:54;;;;;;;5.60;5.03;;;8.00;99.90;;;;;;5109624;28;20532;-32
2022/11/28 05:07:20;;;;;;;8.60;4.90;;;8.00;99.90;;;;;;5110307;28;20421;-36
2022/11/28 05:09:46;;;;;;;5.57;4.73;;;7.80;99.90;;;;;;5109072;28;20449;-36
2022/11/28 05:12:12;;;;;;;5.97;4.87;;;8.00;99.90;;;;;;5109815;28;20989;-35
2022/11/28 05:14:39;;;;;;;7.10;5.70;;;7.80;99.90;;;;;;5109494;28;20504;-36
2022/11/28 05:17:06;;;;;;;5.53;5.00;;;7.80;99.90;;;;;;5123615;27;20179;-30
2022/11/28 05:19:31;;;;;;;5.90;5.30;;;7.90;99.90;;;;;;5129913;27;20786;-35
2022/11/28 05:21:57;;;;;;;6.80;5.90;;;7.90;99.90;;;;;;5130230;27;20409;-35
2022/11/28 05:24:23;;;;;;;7.47;5.53;;;7.80;99.90;;;;;;5116699;27;20187;-34
2022/11/28 05:26:49;;;;;;;6.13;5.13;;;7.90;99.90;;;;;;5108959;28;20180;-34
2022/11/28 05:29:14;;;;;;;5.87;5.30;;;7.90;99.90;;;;;;5109256;28;20753;-34
2022/11/28 05:31:40;;;;;;;5.27;4.73;;;8.00;99.90;;;;;;5109328;28;20184;-32
2022/11/28 05:34:05;;;;;;;5.43;4.93;;;8.10;99.90;;;;;;5107533;28;20214;-34
2022/11/28 05:36:31;;;;;;;6.03;5.27;;;8.00;99.90;;;;;;5103095;28;20192;-32
2022/11/28 05:38:57;;;;;;;7.10;5.20;;;8.00;99.90;;;;;;5096054;28;20757;-36
2022/11/28 05:41:25;;;;;;;7.70;5.80;;;8.00;99.90;;;;;;5109077;28;20178;-36
2022/11/28 05:43:51;;;;;;;6.70;5.67;;;8.20;99.90;;;;;;5107070;28;20184;-36
2022/11/28 05:46:18;;;;;;;7.70;6.30;;;8.20;99.90;;;;;;5107817;28;20788;-36
2022/11/28 05:48:43;;;;;;;6.70;5.67;;;8.00;99.90;;;;;;5108927;28;20743;-37
2022/11/28 05:51:09;;;;;;;5.57;5.03;;;7.90;99.90;;;;;;5108936;28;20409;-33
2022/11/28 05:53:35;;;;;;;6.93;5.40;;;8.00;99.90;;;;;;5108604;28;20646;-33
2022/11/28 05:56:08;;;;;;;5.57;5.07;;;8.00;99.90;;;;;;5108909;28;20652;-34
2022/11/28 05:58:35;;;;;;;6.60;5.23;;;7.90;99.90;;;;;;5108830;28;20436;-35
2022/11/28 06:01:12;;;;;;;7.87;5.83;;;8.00;99.90;;;;;;5108850;28;20420;-33
2022/11/28 06:03:37;;;;;;;6.73;4.90;;;8.00;99.90;;;;;;5108900;28;20408;-35
2022/11/28 06:06:03;;;;;;;7.87;5.33;;;8.00;99.90;;;;;;5108591;28;20936;-31
2022/11/28 06:08:29;;;;;;;6.37;5.17;;;8.00;99.90;;;;;;5108597;28;20167;-33
2022/11/28 06:10:57;;;;;;;6.30;5.20;;;8.10;99.90;;;;;;5109095;28;20447;-34
2022/11/28 06:13:22;;;;;;;6.10;5.50;;;7.90;99.90;;;;;;5108784;28;20203;-33
2022/11/28 06:15:48;;;;;;;5.43;4.90;;;7.90;99.90;;;;;;5111847;28;20420;-35
2022/11/28 06:18:14;;;;;;;6.53;5.60;;;8.00;99.90;;;;;;5129436;27;20167;-31
2022/11/28 06:20:40;;;;;;;7.03;5.23;;;8.10;99.90;;;;;;5129005;27;20269;-32
2022/11/28 06:23:05;;;;;;;6.90;5.40;;;8.00;99.90;;;;;;5127623;27;20231;-32
2022/11/28 06:25:31;;;;;;;5.80;5.20;;;7.90;99.90;;;;;;5107914;28;20206;-35
2022/11/28 06:27:57;;;;;;;6.27;5.67;;;8.10;99.90;;;;;;5108785;28;20185;-34
2022/11/28 06:30:22;;;;;;;8.77;6.40;;;7.90;99.90;;;;;;5108347;28;20279;-33
2022/11/28 06:32:48;;;;;;;6.40;5.43;;;7.90;99.90;;;;;;5108107;28;20214;-37
2022/11/28 06:35:13;;;;;;;8.30;5.60;;;7.90;99.90;;;;;;5098969;28;20189;-31
2022/11/28 06:37:39;;;;;;;6.43;5.57;;;7.90;99.90;;;;;;5100881;28;20184;-34
2022/11/28 06:40:05;;;;;;;7.73;6.30;;;8.00;99.90;;;;;;5107016;28;20176;-34
2022/11/28 06:42:33;;;;;;;7.43;5.90;;;8.10;99.90;;;;;;5112571;28;20191;-34
2022/11/28 06:44:58;;;;;;;6.60;5.83;;;8.20;99.90;;;;;;5111544;28;20409;-31
2022/11/28 06:47:24;;;;;;;8.90;6.63;;;7.90;99.90;;;;;;5112883;28;20921;-32
2022/11/28 06:49:49;;;;;;;6.17;5.57;;;8.00;99.90;;;;;;5110681;28;20180;-34
2022/11/28 06:52:15;;;;;;;7.23;5.63;;;8.00;99.90;;;;;;5112344;28;20667;-32
2022/11/28 06:54:41;;;;;;;7.00;6.30;;;7.90;99.90;;;;;;5107666;28;20706;-36
2022/11/28 06:57:07;;;;;;;7.80;6.80;;;8.10;99.90;;;;;;5108733;28;20651;-31
2022/11/28 06:59:32;;;;;;;6.63;5.93;;;7.90;99.90;;;;;;5112041;28;20172;-33
2022/11/28 07:02:01;;;;;;;8.73;6.40;;;7.90;99.90;;;;;;5112200;28;20549;-34
2022/11/28 07:04:27;;;;;;;6.97;6.00;;;7.80;99.90;;;;;;5110409;28;20176;-31
2022/11/28 07:06:52;;;;;;;6.60;5.90;;;8.10;99.90;;;;;;5109199;28;20924;-37
2022/11/28 07:09:18;;;;;;;7.20;6.53;;;8.00;99.90;;;;;;5100271;28;20327;-34
2022/11/28 07:11:44;;;;;;;7.47;5.97;;;8.10;99.90;;;;;;5108223;28;20753;-32
2022/11/28 07:14:09;;;;;;;7.03;6.17;;;7.90;99.90;;;;;;5095127;28;20185;-34
2022/11/28 07:16:36;;;;;;;7.20;6.37;;;8.00;99.90;;;;;;5108849;27;20184;-31
2022/11/28 07:19:02;;;;;;;8.50;6.43;;;7.90;99.90;;;;;;5109846;28;20180;-38
2022/11/28 07:21:29;;;;;;;8.10;6.03;;;8.20;99.90;;;;;;5111765;28;20760;-34
2022/11/28 07:23:57;;;;;;;7.47;6.17;;;8.10;99.90;;;;;;5098473;28;20929;-35
2022/11/28 07:26:23;;;;;;;6.73;6.13;;;8.10;99.90;;;;;;5109427;28;20835;-37
2022/11/28 07:28:50;;;;;;;8.10;5.90;;;7.90;99.90;;;;;;5109627;28;20416;-36
2022/11/28 07:31:23;;;;;;;7.20;6.50;;;7.90;99.90;;;;;;5100628;28;20259;-33
2022/11/28 07:33:50;;;;;;;7.67;6.37;;;8.10;99.90;;;;;;5100710;28;20464;-35
2022/11/28 07:36:23;;;;;;;6.97;6.30;;;7.90;99.90;;;;;;5100838;28;20414;-35
2022/11/28 07:38:50;;;;;;;6.30;5.37;;;7.80;99.90;;;;;;5102250;27;20409;-37
2022/11/28 07:41:16;;;;;;;10.40;6.07;;;8.10;99.90;;;;;;5111675;28;20448;-33
2022/11/28 07:43:44;;;;;;;6.93;5.80;;;8.00;99.90;;;;;;5111529;28;20417;-35
2022/11/28 07:46:13;;;;;;;8.53;7.63;;;8.10;99.90;;;;;;5105152;28;20474;-37
2022/11/28 07:48:39;;;;;;;7.43;6.50;;;8.20;99.90;;;;;;5101807;28;20449;-36
2022/11/28 07:51:07;;;;;;;7.40;6.60;;;8.00;99.90;;;;;;5111587;28;20449;-39
2022/11/28 07:53:33;;;;;;;8.70;6.97;;;7.90;99.90;;;;;;5110910;28;20278;-33
2022/11/28 07:56:13;;;;;;;7.83;7.03;;;8.00;99.90;;;;;;5110131;28;20898;-31
2022/11/28 07:58:40;;;;;;;7.10;6.40;;;8.00;99.90;;;;;;5110625;28;20436;-35
2022/11/28 08:01:13;;;;;;;7.57;6.20;;;8.10;99.90;;;;;;5111266;28;20837;-32
2022/11/28 08:03:39;;;;;;;9.23;6.93;;;7.90;99.90;;;;;;5104391;28;20458;-30
2022/11/28 08:06:06;;;;;;;9.90;6.97;;;8.00;99.90;;;;;;5091091;28;20496;-32
2022/11/28 08:08:32;;;;;;;10.17;6.57;;;8.00;99.90;;;;;;5109183;28;20695;-35
2022/11/28 08:10:59;;;;;;;10.60;7.20;;;8.10;99.90;;;;;;5110745;28;20775;-34
2022/11/28 08:13:26;;;;;;;8.07;6.80;;;8.00;99.90;;;;;;5110953;28;20211;-32
2022/11/28 08:15:51;;;;;;;9.77;7.43;;;8.00;99.90;;;;;;5114171;27;20417;-35
2022/11/28 08:18:17;;;;;;;10.20;6.33;;;8.00;99.90;;;;;;5131463;27;20412;-36
2022/11/28 08:20:43;;;;;;;6.83;6.13;;;7.90;99.90;;;;;;5130809;27;20179;-35
2022/11/28 08:23:11;;;;;;;7.93;7.13;;;8.00;99.90;;;;;;5128520;27;20179;-34
2022/11/28 08:25:37;;;;;;;8.90;6.20;;;8.00;99.90;;;;;;5110468;28;20413;-36
2022/11/28 08:28:02;;;;;;;7.27;6.37;;;8.00;99.90;;;;;;5110930;28;20193;-31
2022/11/28 08:30:28;;;;;;;6.83;6.20;;;8.10;99.90;;;;;;5110353;28;20185;-31
2022/11/28 08:32:54;;;;;;;7.83;7.03;;;7.90;99.90;;;;;;5110286;28;20251;-32
2022/11/28 08:35:20;;;;;;;7.30;6.50;;;8.20;99.90;;;;;;5109503;28;20406;-32
2022/11/28 08:37:45;;;;;;;6.70;6.00;;;8.00;99.90;;;;;;5110776;28;20321;-30
2022/11/28 08:40:12;;;;;;;9.03;6.50;;;8.10;99.90;;;;;;5109827;28;20179;-33
2022/11/28 08:42:37;;;;;;;7.80;6.20;;;8.00;99.90;;;;;;5110342;27;20909;-36
2022/11/28 08:45:05;;;;;;;6.53;5.93;;;8.00;99.90;;;;;;5110632;28;20459;-32
2022/11/28 08:47:30;;;;;;;7.40;6.70;;;8.10;99.90;;;;;;5110331;28;20180;-37
2022/11/28 08:49:56;;;;;;;6.20;5.57;;;8.10;99.90;;;;;;5109916;28;20409;-33
2022/11/28 08:52:22;;;;;;;8.30;6.57;;;8.10;99.90;;;;;;5110120;28;20696;-31
2022/11/28 08:54:48;;;;;;;7.13;6.30;;;8.10;99.90;;;;;;5109888;28;20184;-35
2022/11/28 08:57:13;;;;;;;7.23;6.50;;;8.10;99.90;;;;;;5110236;28;20428;-33
2022/11/28 08:59:39;;;;;;;6.87;6.17;;;8.30;99.90;;;;;;5109424;28;20176;-37
2022/11/28 09:02:05;;;;;;;7.80;6.60;;;8.20;99.90;;;;;;5109310;28;20176;-33
2022/11/28 09:04:30;;;;;;;8.20;6.80;;;8.10;99.90;;;;;;5109641;27;20730;-35
2022/11/28 09:06:56;;;;;;;7.40;6.57;;;8.10;99.90;;;;;;5109800;28;20278;-35
2022/11/28 09:09:21;;;;;;;6.90;6.20;;;8.30;99.90;;;;;;5109335;28;20203;-32
2022/11/28 09:11:47;;;;;;;8.30;6.33;;;8.30;99.90;;;;;;5109783;28;20207;-34
2022/11/28 09:14:13;;;;;;;10.60;7.40;;;8.30;99.90;;;;;;5109655;28;20191;-35
2022/11/28 09:16:39;;;;;;;7.40;6.43;;;8.00;99.90;;;;;;5119969;27;20436;-35
2022/11/28 09:19:07;;;;;;;8.10;6.57;;;8.10;99.90;;;;;;5130165;27;20274;-33
2022/11/28 09:21:34;;;;;;;9.03;6.80;;;8.30;99.90;;;;;;5129948;27;20943;-32
2022/11/28 09:24:00;;;;;;;7.80;6.13;;;8.10;99.90;;;;;;5120162;27;20447;-31
2022/11/28 09:26:25;;;;;;;6.07;5.57;;;8.30;99.90;;;;;;5108147;28;20413;-33
2022/11/28 09:28:52;;;;;;;7.07;6.00;;;8.40;99.90;;;;;;5109522;28;20421;-35
2022/11/28 09:31:18;;;;;;;6.20;5.60;;;8.20;99.90;;;;;;5109608;28;20172;-30
2022/11/28 09:33:45;;;;;;;8.53;6.73;;;8.30;99.90;;;;;;5108171;28;20460;-31
2022/11/28 09:36:16;;;;;;;7.60;6.23;;;8.30;99.90;;;;;;5109541;28;20504;-34
2022/11/28 09:38:43;;;;;;;8.70;6.40;;;8.60;99.90;;;;;;5108839;28;20438;-32
2022/11/28 09:41:26;;;;;;;8.80;6.33;;;8.40;99.90;;;;;;5109459;28;20441;-32
2022/11/28 09:43:56;;;;;;;6.57;5.50;;;8.30;99.90;;;;;;5109137;28;20405;-32
2022/11/28 09:46:32;;;;;;;7.77;5.80;;;8.40;99.90;;;;;;5109252;28;20405;-33
2022/11/28 09:49:02;;;;;;;6.67;5.97;;;8.50;99.90;;;;;;5108941;28;20528;-32
2022/11/28 09:52:02;;;;;;;8.07;5.43;;;8.30;99.90;;;;;;5109321;28;20409;-31
2022/11/28 09:54:47;;;;;;;7.37;6.37;;;8.30;99.90;;;;;;5097150;28;20422;-30
2022/11/28 09:57:35;;;;;;;7.37;5.93;;;8.30;99.90;;;;;;5109100;28;20951;-35
2022/11/28 10:00:03;;;;;;;8.70;6.27;;;8.50;99.90;;;;;;5108769;28;20410;-32
2022/11/28 10:02:41;;;;;;;6.43;5.70;;;8.40;99.90;;;;;;5109207;28;20420;-31
2022/11/28 10:05:23;;;;;;;8.13;6.63;;;8.40;99.90;;;;;;5109163;28;21320;-30
2022/11/28 10:08:13;;;;;;;7.47;6.17;;;8.40;99.90;;;;;;5108836;28;20419;-33
2022/11/28 10:11:02;;;;;;;6.23;5.60;;;8.70;99.90;;;;;;5108800;28;20409;-30
2022/11/28 10:13:57;;;;;;;7.40;6.70;;;8.50;99.90;;;;;;5108338;28;20460;-31
2022/11/28 10:17:00;;;;;;;7.73;6.47;;;8.40;99.90;;;;;;5117182;28;20469;-32
2022/11/28 10:19:35;;;;;;;7.60;5.77;;;8.50;99.90;;;;;;5128921;27;20404;-36
2022/11/28 10:22:04;;;;;;;8.20;6.47;;;8.50;99.90;;;;;;5129408;27;20808;-34
2022/11/28 10:24:42;;;;;;;7.30;6.37;;;8.60;99.90;;;;;;5114944;27;20496;-34
2022/11/28 10:27:11;;;;;;;6.70;6.00;;;8.60;99.90;;;;;;5108780;28;20405;-35
2022/11/28 10:30:06;;;;;;;7.10;6.37;;;8.60;99.90;;;;;;5108275;28;20410;-34
2022/11/28 10:32:38;;;;;;;8.33;6.47;;;8.50;99.90;;;;;;5108620;28;20450;-34
2022/11/28 10:35:29;;;;;;;7.37;6.17;;;8.90;99.90;;;;;;5107790;28;20420;-34
2022/11/28 10:37:55;;;;;;;6.83;6.23;;;8.70;99.90;;;;;;5108825;28;20417;-34
2022/11/28 10:40:37;;;;;;;8.97;7.17;;;8.60;99.90;;;;;;5108333;28;20781;-31
2022/11/28 10:43:14;;;;;;;7.93;6.03;;;8.60;99.90;;;;;;5108262;28;20176;-33
2022/11/28 10:46:00;;;;;;;8.80;6.33;;;8.60;99.90;;;;;;5108510;28;20836;-35
2022/11/28 10:48:39;;;;;;;6.63;5.67;;;8.50;99.90;;;;;;5107973;28;20516;-32
2022/11/28 10:51:23;;;;;;;7.37;6.60;;;8.80;99.90;;;;;;5109013;28;20754;-31
2022/11/28 10:54:17;;;;;;;6.90;6.20;;;8.70;99.90;;;;;;5108343;28;20468;-31
2022/11/28 10:56:48;;;;;;;9.60;7.17;;;8.70;99.90;;;;;;5108692;28;20406;-34
2022/11/28 10:59:20;;;;;;;9.63;6.70;;;8.70;99.90;;;;;;5108044;28;20474;-32
2022/11/28 11:01:47;;;;;;;7.83;6.67;;;8.70;99.90;;;;;;5108588;28;20421;-37
2022/11/28 11:04:17;;;;;;;8.77;7.10;;;8.70;99.90;;;;;;5108501;28;20475;-34
2022/11/28 11:06:56;;;;;;;9.17;7.47;;;8.70;99.90;;;;;;5108275;28;20422;-31
2022/11/28 11:09:21;;;;;;;7.70;6.33;;;8.60;99.90;;;;;;5108279;28;20410;-35
2022/11/28 11:11:57;;;;;;;7.77;6.97;;;8.80;99.90;;;;;;5108189;28;20459;-37
2022/11/28 11:14:35;;;;;;;7.63;6.90;;;8.90;99.90;;;;;;5107928;28;20179;-34
2022/11/28 11:17:01;;;;;;;11.93;6.90;;;8.80;99.90;;;;;;5121452;28;20428;-31
2022/11/28 11:19:29;;;;;;;7.63;6.83;;;8.80;99.90;;;;;;5128383;27;20408;-36
2022/11/28 11:22:03;;;;;;;7.80;6.43;;;9.00;99.90;;;;;;5127927;27;20261;-31
2022/11/28 11:24:30;;;;;;;9.20;7.30;;;8.90;99.90;;;;;;5116198;27;20543;-33
2022/11/28 11:27:20;;;;;;;10.10;7.33;;;8.80;99.90;;;;;;5110861;28;20409;-35
2022/11/28 11:29:45;;;;;;;8.80;7.20;;;8.80;99.90;;;;;;5111001;28;20414;-34
2022/11/28 11:32:26;;;;;;;9.17;6.73;;;8.80;99.90;;;;;;5110970;27;20454;-31
2022/11/28 11:34:54;;;;;;;10.00;7.43;;;8.80;99.90;;;;;;5110771;28;20229;-32
2022/11/28 11:37:33;;;;;;;7.80;6.97;;;8.80;99.90;;;;;;5111544;28;20711;-31
2022/11/28 11:39:59;;;;;;;9.57;7.07;;;8.90;99.90;;;;;;5111356;28;20453;-30
2022/11/28 11:42:31;;;;;;;9.60;7.30;;;8.90;99.90;;;;;;5111591;28;20790;-34
2022/11/28 11:45:24;;;;;;;9.40;8.07;;;8.90;99.90;;;;;;5111642;28;20637;-37
2022/11/28 11:47:50;;;;;;;8.87;7.70;;;8.80;99.90;;;;;;5111273;28;20502;-33
2022/11/28 11:50:18;;;;;;;9.40;7.50;;;8.80;99.90;;;;;;5111374;28;20445;-35
2022/11/28 11:53:00;;;;;;;7.87;7.13;;;8.80;99.90;;;;;;5111335;28;20294;-36
2022/11/28 11:55:27;;;;;;;8.60;6.97;;;8.80;99.90;;;;;;5109842;28;20471;-36
2022/11/28 11:57:54;;;;;;;8.80;7.30;;;8.90;99.90;;;;;;5111212;28;20598;-32
2022/11/28 12:00:33;;;;;;;11.60;6.87;;;8.70;99.90;;;;;;5110914;28;20410;-34
2022/11/28 12:03:05;;;;;;;8.70;7.23;;;8.90;99.90;;;;;;5110790;28;20418;-35
2022/11/28 12:05:45;;;;;;;9.00;6.93;;;8.70;99.90;;;;;;5111254;28;20942;-36
2022/11/28 12:08:44;;;;;;;9.33;7.47;;;8.80;99.90;;;;;;5111010;27;20927;-36
2022/11/28 12:11:19;;;;;;;10.53;8.13;;;8.70;99.90;;;;;;5111560;28;20445;-35
2022/11/28 12:13:45;;;;;;;9.07;8.20;;;8.80;99.90;;;;;;5111040;28;20453;-31
2022/11/28 12:16:43;;;;;;;8.80;7.67;;;8.80;99.90;;;;;;5117332;27;20409;-32
2022/11/28 12:19:26;;;;;;;8.10;7.30;;;8.80;99.90;;;;;;5131112;27;20228;-32
2022/11/28 12:22:18;;;;;;;8.63;7.13;;;8.80;99.90;;;;;;5131491;27;20423;-36
2022/11/28 12:24:49;;;;;;;10.30;7.60;;;8.80;99.90;;;;;;5115460;27;20446;-31
2022/11/28 12:27:40;;;;;;;10.90;7.40;;;8.80;99.90;;;;;;5110419;28;20410;-35
2022/11/28 12:30:24;;;;;;;9.93;7.90;;;8.70;99.90;;;;;;5110575;28;20564;-31
2022/11/28 12:33:12;;;;;;;11.70;7.70;;;8.70;99.90;;;;;;5110306;28;20982;-30
2022/11/28 12:35:40;;;;;;;10.77;7.00;;;8.80;99.90;;;;;;5109146;28;20440;-34
2022/11/28 12:38:15;;;;;;;8.90;8.00;;;8.80;99.90;;;;;;5109032;28;20835;-32
2022/11/28 12:40:53;;;;;;;9.23;8.10;;;8.80;99.90;;;;;;5110215;27;20431;-35
2022/11/28 12:44:18;;;;;;;7.70;6.73;;;9.00;99.90;;;;;;5110150;28;20405;-33
2022/11/28 12:47:01;;;;;;;8.87;7.20;;;8.80;99.90;;;;;;5094453;28;20414;-35
2022/11/28 12:49:48;;;;;;;12.20;7.77;;;8.80;99.90;;;;;;5109967;28;20409;-33
2022/11/28 12:52:29;;;;;;;8.10;7.30;;;9.00;99.90;;;;;;5109882;28;20968;-34
2022/11/28 12:55:18;;;;;;;12.23;9.00;;;8.90;99.90;;;;;;5110204;28;20484;-32
2022/11/28 12:57:52;;;;;;;9.03;7.50;;;8.90;99.90;;;;;;5110029;28;20797;-31
2022/11/28 13:00:21;;;;;;;8.60;7.63;;;8.70;99.90;;;;;;5100110;28;20463;-34
2022/11/28 13:02:55;;;;;;;12.07;8.33;;;9.00;99.90;;;;;;5103052;27;20549;-36
2022/11/28 13:05:43;;;;;;;7.50;6.80;;;8.80;99.90;;;;;;5101696;28;20536;-31
2022/11/28 13:08:12;;;;;;;10.33;8.13;;;8.90;99.90;;;;;;5109639;28;20417;-32
2022/11/28 13:10:49;;;;;;;8.97;8.00;;;8.70;99.90;;;;;;5108665;28;20417;-35
2022/11/28 13:13:22;;;;;;;9.57;8.60;;;9.10;99.90;;;;;;5108762;28;20498;-34
2022/11/28 13:15:57;;;;;;;8.67;7.43;;;8.70;99.90;;;;;;5109195;28;20505;-32
2022/11/28 13:18:22;;;;;;;8.10;7.30;;;8.70;99.90;;;;;;5107999;28;20431;-32
2022/11/28 13:21:01;;;;;;;9.07;8.07;;;9.00;99.90;;;;;;5109521;28;20410;-29